sensor_id;sensor_type;location;lat;lon;timestamp;P1;durP1;ratioP1;P2;durP2;ratioP2
37309;SDS011;23195;47.744;7.358;2023-04-03T00:01:14;19.13;;;10.77;;
37309;SDS011;23195;47.744;7.358;2023-04-03T00:03:40;14.37;;;9.97;;
37309;SDS011;23195;47.744;7.358;2023-04-03T00:06:06;14.57;;;9.60;;
37309;SDS011;23195;47.744;7.358;2023-04-03T00:08:35;14.80;;;9.70;;
37309;SDS011;23195;47.744;7.358;2023-04-03T00:11:05;13.27;;;8.43;;
37309;SDS011;23195;47.744;7.358;2023-04-03T00:13:31;11.63;;;8.43;;
37309;SDS011;23195;47.744;7.358;2023-04-03T00:16:00;11.43;;;8.27;;
37309;SDS011;23195;47.744;7.358;2023-04-03T00:18:39;10.90;;;7.60;;
37309;SDS011;23195;47.744;7.358;2023-04-03T00:21:08;12.67;;;7.80;;
37309;SDS011;23195;47.744;7.358;2023-04-03T00:23:38;9.47;;;7.20;;
37309;SDS011;23195;47.744;7.358;2023-04-03T00:26:08;12.97;;;8.00;;
37309;SDS011;23195;47.744;7.358;2023-04-03T00:28:34;11.27;;;8.10;;
37309;SDS011;23195;47.744;7.358;2023-04-03T00:31:02;12.80;;;8.07;;
37309;SDS011;23195;47.744;7.358;2023-04-03T00:33:28;11.47;;;8.40;;
37309;SDS011;23195;47.744;7.358;2023-04-03T00:35:54;10.00;;;7.63;;
37309;SDS011;23195;47.744;7.358;2023-04-03T00:38:32;13.33;;;7.50;;
37309;SDS011;23195;47.744;7.358;2023-04-03T00:40:57;8.57;;;6.60;;
37309;SDS011;23195;47.744;7.358;2023-04-03T00:43:24;9.63;;;6.37;;
37309;SDS011;23195;47.744;7.358;2023-04-03T00:45:52;7.90;;;6.20;;
37309;SDS011;23195;47.744;7.358;2023-04-03T00:48:21;12.83;;;7.17;;
37309;SDS011;23195;47.744;7.358;2023-04-03T00:50:58;9.70;;;5.77;;
37309;SDS011;23195;47.744;7.358;2023-04-03T00:53:27;9.53;;;6.27;;
37309;SDS011;23195;47.744;7.358;2023-04-03T00:55:56;7.50;;;5.13;;
37309;SDS011;23195;47.744;7.358;2023-04-03T00:58:26;9.70;;;5.30;;
37309;SDS011;23195;47.744;7.358;2023-04-03T01:00:58;8.17;;;5.30;;
37309;SDS011;23195;47.744;7.358;2023-04-03T01:03:30;6.70;;;4.70;;
37309;SDS011;23195;47.744;7.358;2023-04-03T01:05:59;8.70;;;5.30;;
37309;SDS011;23195;47.744;7.358;2023-04-03T01:08:25;6.90;;;4.47;;
37309;SDS011;23195;47.744;7.358;2023-04-03T01:11:06;6.70;;;5.13;;
37309;SDS011;23195;47.744;7.358;2023-04-03T01:13:32;6.13;;;4.60;;
37309;SDS011;23195;47.744;7.358;2023-04-03T01:16:02;5.23;;;4.70;;
37309;SDS011;23195;47.744;7.358;2023-04-03T01:18:32;5.33;;;4.70;;
37309;SDS011;23195;47.744;7.358;2023-04-03T01:26:46;5.83;;;4.50;;
37309;SDS011;23195;47.744;7.358;2023-04-03T01:29:13;6.37;;;5.00;;
37309;SDS011;23195;47.744;7.358;2023-04-03T01:34:17;10.23;;;5.80;;
37309;SDS011;23195;47.744;7.358;2023-04-03T01:36:43;10.53;;;5.30;;
37309;SDS011;23195;47.744;7.358;2023-04-03T01:39:08;10.30;;;5.23;;
37309;SDS011;23195;47.744;7.358;2023-04-03T01:41:34;7.77;;;5.33;;
37309;SDS011;23195;47.744;7.358;2023-04-03T01:44:00;7.27;;;5.40;;
37309;SDS011;23195;47.744;7.358;2023-04-03T01:46:26;6.10;;;5.00;;
37309;SDS011;23195;47.744;7.358;2023-04-03T01:48:52;10.30;;;5.30;;
37309;SDS011;23195;47.744;7.358;2023-04-03T01:51:18;7.87;;;5.47;;
37309;SDS011;23195;47.744;7.358;2023-04-03T01:53:44;7.80;;;5.10;;
37309;SDS011;23195;47.744;7.358;2023-04-03T01:56:12;6.43;;;4.67;;
37309;SDS011;23195;47.744;7.358;2023-04-03T01:58:38;7.17;;;4.93;;
37309;SDS011;23195;47.744;7.358;2023-04-03T02:01:07;7.63;;;4.80;;
37309;SDS011;23195;47.744;7.358;2023-04-03T02:03:33;5.43;;;4.73;;
37309;SDS011;23195;47.744;7.358;2023-04-03T02:05:59;6.70;;;4.80;;
37309;SDS011;23195;47.744;7.358;2023-04-03T02:08:26;6.10;;;4.67;;
37309;SDS011;23195;47.744;7.358;2023-04-03T02:10:59;8.50;;;4.77;;
37309;SDS011;23195;47.744;7.358;2023-04-03T02:13:25;7.60;;;5.43;;
37309;SDS011;23195;47.744;7.358;2023-04-03T02:15:54;5.70;;;4.77;;
37309;SDS011;23195;47.744;7.358;2023-04-03T02:18:19;6.47;;;4.43;;
37309;SDS011;23195;47.744;7.358;2023-04-03T02:20:46;6.87;;;4.53;;
37309;SDS011;23195;47.744;7.358;2023-04-03T02:23:14;6.00;;;4.70;;
37309;SDS011;23195;47.744;7.358;2023-04-03T02:25:42;6.43;;;4.47;;
37309;SDS011;23195;47.744;7.358;2023-04-03T02:28:11;7.67;;;4.90;;
37309;SDS011;23195;47.744;7.358;2023-04-03T02:30:37;9.80;;;4.70;;
37309;SDS011;23195;47.744;7.358;2023-04-03T02:33:03;6.03;;;4.53;;
37309;SDS011;23195;47.744;7.358;2023-04-03T02:35:30;5.80;;;4.20;;
37309;SDS011;23195;47.744;7.358;2023-04-03T02:37:58;5.93;;;4.63;;
37309;SDS011;23195;47.744;7.358;2023-04-03T02:40:27;6.43;;;4.47;;
37309;SDS011;23195;47.744;7.358;2023-04-03T02:42:53;6.93;;;4.73;;
37309;SDS011;23195;47.744;7.358;2023-04-03T02:45:19;6.07;;;4.40;;
37309;SDS011;23195;47.744;7.358;2023-04-03T02:47:44;7.87;;;4.77;;
37309;SDS011;23195;47.744;7.358;2023-04-03T02:50:13;5.77;;;4.73;;
37309;SDS011;23195;47.744;7.358;2023-04-03T02:52:38;6.63;;;4.53;;
37309;SDS011;23195;47.744;7.358;2023-04-03T02:55:04;5.80;;;4.20;;
37309;SDS011;23195;47.744;7.358;2023-04-03T02:57:31;5.33;;;4.33;;
37309;SDS011;23195;47.744;7.358;2023-04-03T02:59:57;5.87;;;4.60;;
37309;SDS011;23195;47.744;7.358;2023-04-03T03:02:22;7.70;;;4.63;;
37309;SDS011;23195;47.744;7.358;2023-04-03T03:04:57;6.13;;;4.63;;
37309;SDS011;23195;47.744;7.358;2023-04-03T03:07:23;6.17;;;4.40;;
37309;SDS011;23195;47.744;7.358;2023-04-03T03:09:59;7.33;;;4.33;;
37309;SDS011;23195;47.744;7.358;2023-04-03T03:12:25;8.70;;;4.83;;
37309;SDS011;23195;47.744;7.358;2023-04-03T03:14:57;11.50;;;4.50;;
37309;SDS011;23195;47.744;7.358;2023-04-03T03:17:23;7.53;;;4.70;;
37309;SDS011;23195;47.744;7.358;2023-04-03T03:19:49;6.57;;;4.80;;
37309;SDS011;23195;47.744;7.358;2023-04-03T03:22:18;5.93;;;4.50;;
37309;SDS011;23195;47.744;7.358;2023-04-03T03:24:44;6.40;;;4.77;;
37309;SDS011;23195;47.744;7.358;2023-04-03T03:27:20;5.37;;;4.20;;
37309;SDS011;23195;47.744;7.358;2023-04-03T03:29:45;5.77;;;4.43;;
37309;SDS011;23195;47.744;7.358;2023-04-03T03:32:21;7.10;;;4.60;;
37309;SDS011;23195;47.744;7.358;2023-04-03T03:34:46;6.23;;;4.63;;
37309;SDS011;23195;47.744;7.358;2023-04-03T03:37:12;6.50;;;4.87;;
37309;SDS011;23195;47.744;7.358;2023-04-03T03:39:38;5.63;;;4.63;;
37309;SDS011;23195;47.744;7.358;2023-04-03T03:42:10;5.43;;;4.43;;
37309;SDS011;23195;47.744;7.358;2023-04-03T03:44:38;6.97;;;4.43;;
37309;SDS011;23195;47.744;7.358;2023-04-03T03:47:06;6.83;;;4.60;;
37309;SDS011;23195;47.744;7.358;2023-04-03T03:49:35;6.93;;;4.50;;
37309;SDS011;23195;47.744;7.358;2023-04-03T03:52:01;5.73;;;4.17;;
37309;SDS011;23195;47.744;7.358;2023-04-03T03:54:30;6.27;;;4.40;;
37309;SDS011;23195;47.744;7.358;2023-04-03T03:57:06;6.57;;;4.33;;
37309;SDS011;23195;47.744;7.358;2023-04-03T03:59:32;6.03;;;4.07;;
37309;SDS011;23195;47.744;7.358;2023-04-03T04:02:05;6.33;;;4.10;;
37309;SDS011;23195;47.744;7.358;2023-04-03T04:04:31;6.50;;;4.30;;
37309;SDS011;23195;47.744;7.358;2023-04-03T04:06:57;6.27;;;4.30;;
37309;SDS011;23195;47.744;7.358;2023-04-03T04:09:32;5.53;;;3.67;;
37309;SDS011;23195;47.744;7.358;2023-04-03T04:11:58;7.17;;;3.93;;
37309;SDS011;23195;47.744;7.358;2023-04-03T04:14:23;4.67;;;3.87;;
37309;SDS011;23195;47.744;7.358;2023-04-03T04:16:57;6.30;;;4.30;;
37309;SDS011;23195;47.744;7.358;2023-04-03T04:19:23;5.10;;;4.00;;
37309;SDS011;23195;47.744;7.358;2023-04-03T04:21:54;5.17;;;3.93;;
37309;SDS011;23195;47.744;7.358;2023-04-03T04:24:19;6.20;;;4.50;;
37309;SDS011;23195;47.744;7.358;2023-04-03T04:26:55;6.03;;;3.63;;
37309;SDS011;23195;47.744;7.358;2023-04-03T04:29:21;6.03;;;3.70;;
37309;SDS011;23195;47.744;7.358;2023-04-03T04:31:50;9.83;;;4.10;;
37309;SDS011;23195;47.744;7.358;2023-04-03T04:34:19;6.37;;;4.40;;
37309;SDS011;23195;47.744;7.358;2023-04-03T04:36:45;5.67;;;4.27;;
37309;SDS011;23195;47.744;7.358;2023-04-03T04:39:21;7.73;;;4.50;;
37309;SDS011;23195;47.744;7.358;2023-04-03T04:41:50;6.00;;;3.83;;
37309;SDS011;23195;47.744;7.358;2023-04-03T04:44:15;5.57;;;3.90;;
37309;SDS011;23195;47.744;7.358;2023-04-03T04:46:41;6.23;;;4.27;;
37309;SDS011;23195;47.744;7.358;2023-04-03T04:49:10;8.90;;;4.30;;
37309;SDS011;23195;47.744;7.358;2023-04-03T04:51:36;6.67;;;4.20;;
37309;SDS011;23195;47.744;7.358;2023-04-03T04:54:01;7.20;;;3.83;;
37309;SDS011;23195;47.744;7.358;2023-04-03T04:56:36;6.97;;;4.50;;
37309;SDS011;23195;47.744;7.358;2023-04-03T04:59:11;5.60;;;4.17;;
37309;SDS011;23195;47.744;7.358;2023-04-03T05:01:37;6.80;;;3.90;;
37309;SDS011;23195;47.744;7.358;2023-04-03T05:04:06;8.43;;;4.10;;
37309;SDS011;23195;47.744;7.358;2023-04-03T05:06:34;5.90;;;4.30;;
37309;SDS011;23195;47.744;7.358;2023-04-03T05:09:03;4.97;;;4.03;;
37309;SDS011;23195;47.744;7.358;2023-04-03T05:11:49;7.67;;;4.80;;
37309;SDS011;23195;47.744;7.358;2023-04-03T05:14:15;5.67;;;4.00;;
37309;SDS011;23195;47.744;7.358;2023-04-03T05:16:41;7.77;;;4.67;;
37309;SDS011;23195;47.744;7.358;2023-04-03T05:19:20;6.23;;;4.50;;
37309;SDS011;23195;47.744;7.358;2023-04-03T05:21:57;7.07;;;4.50;;
37309;SDS011;23195;47.744;7.358;2023-04-03T05:24:40;7.00;;;4.80;;
37309;SDS011;23195;47.744;7.358;2023-04-03T05:27:06;13.90;;;4.90;;
37309;SDS011;23195;47.744;7.358;2023-04-03T05:29:34;7.67;;;4.77;;
37309;SDS011;23195;47.744;7.358;2023-04-03T05:32:00;6.40;;;4.40;;
37309;SDS011;23195;47.744;7.358;2023-04-03T05:34:28;6.27;;;4.47;;
37309;SDS011;23195;47.744;7.358;2023-04-03T05:36:58;8.73;;;5.00;;
37309;SDS011;23195;47.744;7.358;2023-04-03T05:39:35;9.53;;;4.90;;
37309;SDS011;23195;47.744;7.358;2023-04-03T05:42:05;6.67;;;4.80;;
37309;SDS011;23195;47.744;7.358;2023-04-03T05:44:38;6.67;;;4.87;;
37309;SDS011;23195;47.744;7.358;2023-04-03T05:47:13;6.43;;;4.77;;
37309;SDS011;23195;47.744;7.358;2023-04-03T05:49:42;8.53;;;5.27;;
37309;SDS011;23195;47.744;7.358;2023-04-03T05:52:27;6.73;;;5.00;;
37309;SDS011;23195;47.744;7.358;2023-04-03T05:55:00;7.03;;;4.90;;
37309;SDS011;23195;47.744;7.358;2023-04-03T05:57:28;6.20;;;5.13;;
37309;SDS011;23195;47.744;7.358;2023-04-03T05:59:54;8.63;;;5.27;;
37309;SDS011;23195;47.744;7.358;2023-04-03T06:02:30;7.00;;;4.70;;
37309;SDS011;23195;47.744;7.358;2023-04-03T06:04:58;9.73;;;4.57;;
37309;SDS011;23195;47.744;7.358;2023-04-03T06:07:27;6.90;;;4.47;;
37309;SDS011;23195;47.744;7.358;2023-04-03T06:09:58;5.93;;;4.67;;
37309;SDS011;23195;47.744;7.358;2023-04-03T06:12:27;5.83;;;4.60;;
37309;SDS011;23195;47.744;7.358;2023-04-03T06:14:56;8.07;;;5.17;;
37309;SDS011;23195;47.744;7.358;2023-04-03T06:17:22;6.73;;;4.50;;
37309;SDS011;23195;47.744;7.358;2023-04-03T06:19:48;6.07;;;4.70;;
37309;SDS011;23195;47.744;7.358;2023-04-03T06:22:14;9.13;;;4.90;;
37309;SDS011;23195;47.744;7.358;2023-04-03T06:24:40;7.00;;;4.50;;
37309;SDS011;23195;47.744;7.358;2023-04-03T06:27:06;7.23;;;4.30;;
37309;SDS011;23195;47.744;7.358;2023-04-03T06:29:35;7.93;;;4.73;;
37309;SDS011;23195;47.744;7.358;2023-04-03T06:32:02;6.17;;;4.67;;
37309;SDS011;23195;47.744;7.358;2023-04-03T06:34:28;9.10;;;4.70;;
37309;SDS011;23195;47.744;7.358;2023-04-03T06:36:53;6.17;;;4.63;;
37309;SDS011;23195;47.744;7.358;2023-04-03T06:39:22;9.17;;;4.57;;
37309;SDS011;23195;47.744;7.358;2023-04-03T06:41:48;7.37;;;4.80;;
37309;SDS011;23195;47.744;7.358;2023-04-03T06:44:16;7.57;;;4.87;;
37309;SDS011;23195;47.744;7.358;2023-04-03T06:46:45;8.07;;;5.20;;
37309;SDS011;23195;47.744;7.358;2023-04-03T06:49:13;6.60;;;5.13;;
37309;SDS011;23195;47.744;7.358;2023-04-03T06:51:42;6.40;;;4.83;;
37309;SDS011;23195;47.744;7.358;2023-04-03T06:54:08;9.27;;;5.23;;
37309;SDS011;23195;47.744;7.358;2023-04-03T06:56:44;10.07;;;5.43;;
37309;SDS011;23195;47.744;7.358;2023-04-03T06:59:13;8.80;;;5.13;;
37309;SDS011;23195;47.744;7.358;2023-04-03T07:01:41;7.13;;;4.93;;
37309;SDS011;23195;47.744;7.358;2023-04-03T07:04:07;5.70;;;4.57;;
37309;SDS011;23195;47.744;7.358;2023-04-03T07:06:39;9.73;;;5.20;;
37309;SDS011;23195;47.744;7.358;2023-04-03T07:09:14;9.40;;;5.27;;
37309;SDS011;23195;47.744;7.358;2023-04-03T07:11:43;8.87;;;5.60;;
37309;SDS011;23195;47.744;7.358;2023-04-03T07:14:14;8.73;;;5.50;;
37309;SDS011;23195;47.744;7.358;2023-04-03T07:16:50;7.87;;;5.60;;
37309;SDS011;23195;47.744;7.358;2023-04-03T07:19:19;8.97;;;5.43;;
37309;SDS011;23195;47.744;7.358;2023-04-03T07:24:43;7.13;;;4.93;;
37309;SDS011;23195;47.744;7.358;2023-04-03T07:27:10;7.73;;;5.67;;
37309;SDS011;23195;47.744;7.358;2023-04-03T07:29:45;11.33;;;6.30;;
37309;SDS011;23195;47.744;7.358;2023-04-03T07:32:14;8.70;;;5.60;;
37309;SDS011;23195;47.744;7.358;2023-04-03T07:34:40;7.40;;;5.07;;
37309;SDS011;23195;47.744;7.358;2023-04-03T07:37:11;13.83;;;5.30;;
37309;SDS011;23195;47.744;7.358;2023-04-03T07:39:50;8.43;;;5.57;;
37309;SDS011;23195;47.744;7.358;2023-04-03T07:42:16;6.00;;;5.10;;
37309;SDS011;23195;47.744;7.358;2023-04-03T07:44:46;8.10;;;5.60;;
37309;SDS011;23195;47.744;7.358;2023-04-03T07:47:15;7.63;;;5.73;;
37309;SDS011;23195;47.744;7.358;2023-04-03T07:49:46;7.00;;;5.40;;
37309;SDS011;23195;47.744;7.358;2023-04-03T07:52:12;7.90;;;6.13;;
37309;SDS011;23195;47.744;7.358;2023-04-03T07:54:43;7.13;;;5.73;;
37309;SDS011;23195;47.744;7.358;2023-04-03T07:57:08;9.47;;;5.30;;
37309;SDS011;23195;47.744;7.358;2023-04-03T07:59:37;9.60;;;5.60;;
37309;SDS011;23195;47.744;7.358;2023-04-03T08:02:08;7.10;;;5.57;;
37309;SDS011;23195;47.744;7.358;2023-04-03T08:04:35;6.83;;;5.30;;
37309;SDS011;23195;47.744;7.358;2023-04-03T08:07:01;9.53;;;6.17;;
37309;SDS011;23195;47.744;7.358;2023-04-03T08:09:29;7.40;;;5.40;;
37309;SDS011;23195;47.744;7.358;2023-04-03T08:11:56;8.60;;;5.47;;
37309;SDS011;23195;47.744;7.358;2023-04-03T08:14:22;8.40;;;5.70;;
37309;SDS011;23195;47.744;7.358;2023-04-03T08:16:48;9.23;;;5.67;;
37309;SDS011;23195;47.744;7.358;2023-04-03T08:19:15;7.10;;;5.27;;
37309;SDS011;23195;47.744;7.358;2023-04-03T08:21:46;9.33;;;5.93;;
37309;SDS011;23195;47.744;7.358;2023-04-03T08:24:11;11.13;;;5.83;;
37309;SDS011;23195;47.744;7.358;2023-04-03T08:26:37;7.93;;;5.00;;
37309;SDS011;23195;47.744;7.358;2023-04-03T08:29:03;10.23;;;5.50;;
37309;SDS011;23195;47.744;7.358;2023-04-03T08:31:32;7.73;;;5.30;;
37309;SDS011;23195;47.744;7.358;2023-04-03T08:33:58;7.03;;;4.97;;
37309;SDS011;23195;47.744;7.358;2023-04-03T08:36:27;8.50;;;4.80;;
37309;SDS011;23195;47.744;7.358;2023-04-03T08:38:55;10.77;;;5.30;;
37309;SDS011;23195;47.744;7.358;2023-04-03T08:41:29;7.73;;;6.37;;
37309;SDS011;23195;47.744;7.358;2023-04-03T08:44:11;7.13;;;5.40;;
37309;SDS011;23195;47.744;7.358;2023-04-03T08:52:05;8.47;;;5.00;;
37309;SDS011;23195;47.744;7.358;2023-04-03T08:54:57;7.70;;;4.50;;
37309;SDS011;23195;47.744;7.358;2023-04-03T08:57:36;8.10;;;4.93;;
37309;SDS011;23195;47.744;7.358;2023-04-03T09:00:23;8.30;;;5.40;;
37309;SDS011;23195;47.744;7.358;2023-04-03T09:02:54;6.37;;;4.67;;
37309;SDS011;23195;47.744;7.358;2023-04-03T09:05:42;6.27;;;4.73;;
37309;SDS011;23195;47.744;7.358;2023-04-03T09:11:24;9.20;;;5.20;;
37309;SDS011;23195;47.744;7.358;2023-04-03T09:14:22;6.30;;;5.07;;
37309;SDS011;23195;47.744;7.358;2023-04-03T09:17:15;6.43;;;5.00;;
37309;SDS011;23195;47.744;7.358;2023-04-03T09:22:39;6.20;;;4.90;;
37309;SDS011;23195;47.744;7.358;2023-04-03T09:25:13;9.07;;;5.27;;
37309;SDS011;23195;47.744;7.358;2023-04-03T09:27:46;6.27;;;5.10;;
37309;SDS011;23195;47.744;7.358;2023-04-03T09:30:16;6.93;;;4.43;;
37309;SDS011;23195;47.744;7.358;2023-04-03T09:32:47;4.80;;;3.90;;
37309;SDS011;23195;47.744;7.358;2023-04-03T09:35:24;5.07;;;4.30;;
37309;SDS011;23195;47.744;7.358;2023-04-03T09:37:55;6.10;;;4.17;;
37309;SDS011;23195;47.744;7.358;2023-04-03T09:40:44;4.97;;;4.13;;
37309;SDS011;23195;47.744;7.358;2023-04-03T09:43:21;6.90;;;4.50;;
37309;SDS011;23195;47.744;7.358;2023-04-03T09:46:31;11.20;;;5.53;;
37309;SDS011;23195;47.744;7.358;2023-04-03T09:49:09;4.17;;;3.63;;
37309;SDS011;23195;47.744;7.358;2023-04-03T09:51:43;4.70;;;3.23;;
37309;SDS011;23195;47.744;7.358;2023-04-03T09:57:09;5.00;;;4.10;;
37309;SDS011;23195;47.744;7.358;2023-04-03T09:59:40;4.33;;;3.93;;
37309;SDS011;23195;47.744;7.358;2023-04-03T10:08:09;4.90;;;3.10;;
37309;SDS011;23195;47.744;7.358;2023-04-03T10:10:48;3.70;;;3.33;;
37309;SDS011;23195;47.744;7.358;2023-04-03T10:13:50;4.57;;;3.60;;
37309;SDS011;23195;47.744;7.358;2023-04-03T10:16:23;3.87;;;3.30;;
37309;SDS011;23195;47.744;7.358;2023-04-03T10:22:16;6.63;;;4.17;;
37309;SDS011;23195;47.744;7.358;2023-04-03T10:27:57;6.77;;;3.77;;
37309;SDS011;23195;47.744;7.358;2023-04-03T10:33:08;6.43;;;3.87;;
37309;SDS011;23195;47.744;7.358;2023-04-03T10:36:02;5.93;;;3.90;;
37309;SDS011;23195;47.744;7.358;2023-04-03T10:41:56;5.50;;;4.27;;
37309;SDS011;23195;47.744;7.358;2023-04-03T10:52:59;5.60;;;4.53;;
37309;SDS011;23195;47.744;7.358;2023-04-03T10:58:28;6.03;;;4.90;;
37309;SDS011;23195;47.744;7.358;2023-04-03T11:01:00;5.93;;;5.10;;
37309;SDS011;23195;47.744;7.358;2023-04-03T11:03:34;7.47;;;5.57;;
37309;SDS011;23195;47.744;7.358;2023-04-03T11:06:06;7.73;;;5.47;;
37309;SDS011;23195;47.744;7.358;2023-04-03T11:08:38;7.43;;;5.13;;
37309;SDS011;23195;47.744;7.358;2023-04-03T11:11:27;10.13;;;5.30;;
37309;SDS011;23195;47.744;7.358;2023-04-03T11:14:11;6.53;;;4.57;;
37309;SDS011;23195;47.744;7.358;2023-04-03T11:16:54;8.33;;;5.33;;
37309;SDS011;23195;47.744;7.358;2023-04-03T11:25:49;5.57;;;4.63;;
37309;SDS011;23195;47.744;7.358;2023-04-03T11:28:21;7.63;;;5.50;;
37309;SDS011;23195;47.744;7.358;2023-04-03T11:36:32;5.00;;;4.37;;
37309;SDS011;23195;47.744;7.358;2023-04-03T11:39:23;4.70;;;3.43;;
37309;SDS011;23195;47.744;7.358;2023-04-03T11:45:17;4.33;;;2.90;;
37309;SDS011;23195;47.744;7.358;2023-04-03T11:47:50;3.60;;;3.00;;
37309;SDS011;23195;47.744;7.358;2023-04-03T11:50:30;3.90;;;2.70;;
37309;SDS011;23195;47.744;7.358;2023-04-03T12:26:46;4.10;;;3.10;;
37309;SDS011;23195;47.744;7.358;2023-04-03T12:46:52;4.83;;;3.20;;
37309;SDS011;23195;47.744;7.358;2023-04-03T12:49:45;4.70;;;3.30;;
37309;SDS011;23195;47.744;7.358;2023-04-03T12:52:17;5.80;;;3.00;;
37309;SDS011;23195;47.744;7.358;2023-04-03T12:55:03;3.33;;;3.00;;
37309;SDS011;23195;47.744;7.358;2023-04-03T12:57:35;3.87;;;3.03;;
37309;SDS011;23195;47.744;7.358;2023-04-03T13:00:18;3.03;;;2.67;;
37309;SDS011;23195;47.744;7.358;2023-04-03T13:03:22;3.23;;;2.87;;
37309;SDS011;23195;47.744;7.358;2023-04-03T13:05:57;4.73;;;2.77;;
37309;SDS011;23195;47.744;7.358;2023-04-03T13:08:28;3.57;;;2.90;;
37309;SDS011;23195;47.744;7.358;2023-04-03T13:11:08;3.10;;;2.80;;
37309;SDS011;23195;47.744;7.358;2023-04-03T13:14:01;3.50;;;3.20;;
37309;SDS011;23195;47.744;7.358;2023-04-03T13:16:40;3.60;;;2.70;;
37309;SDS011;23195;47.744;7.358;2023-04-03T13:19:19;3.17;;;2.87;;
37309;SDS011;23195;47.744;7.358;2023-04-03T13:21:47;2.63;;;2.30;;
37309;SDS011;23195;47.744;7.358;2023-04-03T13:24:14;3.07;;;2.20;;
37309;SDS011;23195;47.744;7.358;2023-04-03T13:26:40;2.87;;;2.57;;
37309;SDS011;23195;47.744;7.358;2023-04-03T13:29:18;3.67;;;2.70;;
37309;SDS011;23195;47.744;7.358;2023-04-03T13:31:55;5.60;;;3.00;;
37309;SDS011;23195;47.744;7.358;2023-04-03T13:34:52;3.23;;;2.70;;
37309;SDS011;23195;47.744;7.358;2023-04-03T13:37:24;3.43;;;2.60;;
37309;SDS011;23195;47.744;7.358;2023-04-03T13:42:26;6.90;;;2.70;;
37309;SDS011;23195;47.744;7.358;2023-04-03T13:47:41;4.20;;;2.50;;
37309;SDS011;23195;47.744;7.358;2023-04-03T13:50:21;6.23;;;3.03;;
37309;SDS011;23195;47.744;7.358;2023-04-03T13:52:53;4.73;;;2.93;;
37309;SDS011;23195;47.744;7.358;2023-04-03T13:55:29;3.80;;;2.83;;
37309;SDS011;23195;47.744;7.358;2023-04-03T14:00:36;3.17;;;2.70;;
37309;SDS011;23195;47.744;7.358;2023-04-03T14:06:15;3.73;;;2.77;;
37309;SDS011;23195;47.744;7.358;2023-04-03T14:08:41;3.73;;;3.00;;
37309;SDS011;23195;47.744;7.358;2023-04-03T14:11:11;5.70;;;3.07;;
37309;SDS011;23195;47.744;7.358;2023-04-03T14:13:50;4.90;;;3.30;;
37309;SDS011;23195;47.744;7.358;2023-04-03T14:16:26;3.20;;;2.90;;
37309;SDS011;23195;47.744;7.358;2023-04-03T14:18:54;3.20;;;2.87;;
37309;SDS011;23195;47.744;7.358;2023-04-03T14:21:20;4.00;;;3.00;;
37309;SDS011;23195;47.744;7.358;2023-04-03T14:23:47;3.13;;;2.77;;
37309;SDS011;23195;47.744;7.358;2023-04-03T14:26:33;3.87;;;3.23;;
37309;SDS011;23195;47.744;7.358;2023-04-03T14:29:09;3.57;;;2.90;;
37309;SDS011;23195;47.744;7.358;2023-04-03T14:31:36;5.13;;;3.07;;
37309;SDS011;23195;47.744;7.358;2023-04-03T14:34:19;3.93;;;3.07;;
37309;SDS011;23195;47.744;7.358;2023-04-03T14:36:55;6.83;;;3.13;;
37309;SDS011;23195;47.744;7.358;2023-04-03T14:39:21;4.53;;;2.90;;
37309;SDS011;23195;47.744;7.358;2023-04-03T14:42:00;4.60;;;2.87;;
37309;SDS011;23195;47.744;7.358;2023-04-03T14:44:26;3.73;;;3.00;;
37309;SDS011;23195;47.744;7.358;2023-04-03T14:47:01;3.17;;;2.77;;
37309;SDS011;23195;47.744;7.358;2023-04-03T14:49:36;4.17;;;3.00;;
37309;SDS011;23195;47.744;7.358;2023-04-03T14:52:02;3.33;;;2.90;;
37309;SDS011;23195;47.744;7.358;2023-04-03T14:54:31;3.33;;;2.80;;
37309;SDS011;23195;47.744;7.358;2023-04-03T14:57:00;4.27;;;3.10;;
37309;SDS011;23195;47.744;7.358;2023-04-03T14:59:26;4.60;;;2.80;;
37309;SDS011;23195;47.744;7.358;2023-04-03T15:01:56;3.20;;;2.70;;
37309;SDS011;23195;47.744;7.358;2023-04-03T15:04:32;3.47;;;3.10;;
37309;SDS011;23195;47.744;7.358;2023-04-03T15:06:58;4.07;;;2.93;;
37309;SDS011;23195;47.744;7.358;2023-04-03T15:09:26;3.77;;;2.77;;
37309;SDS011;23195;47.744;7.358;2023-04-03T15:12:03;5.17;;;2.90;;
37309;SDS011;23195;47.744;7.358;2023-04-03T15:14:29;3.93;;;2.77;;
37309;SDS011;23195;47.744;7.358;2023-04-03T15:16:58;3.67;;;2.90;;
37309;SDS011;23195;47.744;7.358;2023-04-03T15:19:27;2.90;;;2.60;;
37309;SDS011;23195;47.744;7.358;2023-04-03T15:21:56;3.20;;;2.70;;
37309;SDS011;23195;47.744;7.358;2023-04-03T15:24:29;3.33;;;2.90;;
37309;SDS011;23195;47.744;7.358;2023-04-03T15:27:08;4.73;;;3.10;;
37309;SDS011;23195;47.744;7.358;2023-04-03T15:30:04;4.80;;;2.90;;
37309;SDS011;23195;47.744;7.358;2023-04-03T15:32:31;10.37;;;3.13;;
37309;SDS011;23195;47.744;7.358;2023-04-03T15:35:20;3.53;;;2.90;;
37309;SDS011;23195;47.744;7.358;2023-04-03T15:37:49;5.77;;;3.30;;
37309;SDS011;23195;47.744;7.358;2023-04-03T15:40:18;4.93;;;3.03;;
37309;SDS011;23195;47.744;7.358;2023-04-03T15:43:03;4.77;;;2.87;;
37309;SDS011;23195;47.744;7.358;2023-04-03T15:45:33;3.33;;;2.60;;
37309;SDS011;23195;47.744;7.358;2023-04-03T15:48:03;4.97;;;2.90;;
37309;SDS011;23195;47.744;7.358;2023-04-03T15:50:33;4.73;;;3.33;;
37309;SDS011;23195;47.744;7.358;2023-04-03T15:53:03;3.80;;;3.00;;
37309;SDS011;23195;47.744;7.358;2023-04-03T15:56:12;3.33;;;2.60;;
37309;SDS011;23195;47.744;7.358;2023-04-03T15:58:38;3.43;;;2.60;;
37309;SDS011;23195;47.744;7.358;2023-04-03T16:01:08;4.10;;;3.40;;
37309;SDS011;23195;47.744;7.358;2023-04-03T16:03:40;6.47;;;4.83;;
37309;SDS011;23195;47.744;7.358;2023-04-03T16:06:19;5.47;;;3.77;;
37309;SDS011;23195;47.744;7.358;2023-04-03T16:08:46;5.07;;;3.73;;
37309;SDS011;23195;47.744;7.358;2023-04-03T16:11:14;4.33;;;3.33;;
37309;SDS011;23195;47.744;7.358;2023-04-03T16:13:40;5.23;;;3.67;;
37309;SDS011;23195;47.744;7.358;2023-04-03T16:16:10;5.47;;;4.20;;
37309;SDS011;23195;47.744;7.358;2023-04-03T16:18:35;3.33;;;2.83;;
37309;SDS011;23195;47.744;7.358;2023-04-03T16:21:12;4.13;;;2.90;;
37309;SDS011;23195;47.744;7.358;2023-04-03T16:23:44;6.10;;;4.00;;
37309;SDS011;23195;47.744;7.358;2023-04-03T16:26:11;9.13;;;5.73;;
37309;SDS011;23195;47.744;7.358;2023-04-03T16:29:06;4.47;;;3.50;;
37309;SDS011;23195;47.744;7.358;2023-04-03T16:31:35;13.70;;;6.97;;
37309;SDS011;23195;47.744;7.358;2023-04-03T16:34:10;5.70;;;3.70;;
37309;SDS011;23195;47.744;7.358;2023-04-03T16:36:41;7.10;;;4.43;;
37309;SDS011;23195;47.744;7.358;2023-04-03T16:39:09;7.10;;;4.67;;
37309;SDS011;23195;47.744;7.358;2023-04-03T16:41:35;3.63;;;3.27;;
37309;SDS011;23195;47.744;7.358;2023-04-03T16:44:01;5.80;;;4.30;;
37309;SDS011;23195;47.744;7.358;2023-04-03T16:46:49;3.40;;;2.70;;
37309;SDS011;23195;47.744;7.358;2023-04-03T16:49:16;4.03;;;3.00;;
37309;SDS011;23195;47.744;7.358;2023-04-03T16:52:06;5.03;;;3.10;;
37309;SDS011;23195;47.744;7.358;2023-04-03T16:54:32;4.63;;;2.90;;
37309;SDS011;23195;47.744;7.358;2023-04-03T16:56:58;3.63;;;3.07;;
37309;SDS011;23195;47.744;7.358;2023-04-03T16:59:24;3.90;;;3.10;;
37309;SDS011;23195;47.744;7.358;2023-04-03T17:01:50;4.10;;;3.07;;
37309;SDS011;23195;47.744;7.358;2023-04-03T17:04:15;4.73;;;2.67;;
37309;SDS011;23195;47.744;7.358;2023-04-03T17:06:44;3.47;;;3.10;;
37309;SDS011;23195;47.744;7.358;2023-04-03T17:09:10;5.47;;;3.23;;
37309;SDS011;23195;47.744;7.358;2023-04-03T17:11:36;3.87;;;3.40;;
37309;SDS011;23195;47.744;7.358;2023-04-03T17:14:03;4.53;;;3.27;;
37309;SDS011;23195;47.744;7.358;2023-04-03T17:16:32;3.53;;;2.77;;
37309;SDS011;23195;47.744;7.358;2023-04-03T17:19:03;4.57;;;3.30;;
37309;SDS011;23195;47.744;7.358;2023-04-03T17:21:30;5.50;;;3.50;;
37309;SDS011;23195;47.744;7.358;2023-04-03T17:24:00;4.20;;;2.97;;